createdAt,value
2023-06-17T00:00:54.805Z,14.20
2023-06-17T00:03:45.012Z,13.43
2023-06-17T00:06:30.847Z,12.88
2023-06-17T00:09:21.380Z,15.20
2023-06-17T00:12:07.184Z,12.85
2023-06-17T00:14:54.494Z,13.50
2023-06-17T00:17:45.977Z,12.48
2023-06-17T00:20:33.938Z,15.23
2023-06-17T00:23:23.182Z,12.95
2023-06-17T00:26:09.782Z,14.70
2023-06-17T00:28:55.851Z,14.10
2023-06-17T00:31:41.879Z,12.80
2023-06-17T00:34:27.406Z,13.90
2023-06-17T00:37:13.773Z,14.75
2023-06-17T00:39:59.602Z,15.50
2023-06-17T00:42:45.911Z,14.40
2023-06-17T00:45:39.823Z,12.52
2023-06-17T00:48:26.163Z,14.00
2023-06-17T00:51:12.917Z,13.90
2023-06-17T00:54:00.096Z,13.80
2023-06-17T00:56:45.732Z,13.82
2023-06-17T00:59:33.832Z,15.88
2023-06-17T01:02:21.081Z,15.23
2023-06-17T01:05:12.818Z,16.33
2023-06-17T01:08:18.172Z,14.38
2023-06-17T01:11:14.414Z,13.77
2023-06-17T01:14:01.135Z,14.38
2023-06-17T01:16:52.086Z,13.82
2023-06-17T01:19:39.283Z,13.20
2023-06-17T01:22:25.437Z,14.15
2023-06-17T01:25:14.250Z,13.43
2023-06-17T01:28:04.787Z,14.88
2023-06-17T01:30:55.978Z,13.07
2023-06-17T01:33:42.872Z,14.07
2023-06-17T01:36:34.409Z,13.48
2023-06-17T01:39:21.517Z,12.75
2023-06-17T01:42:13.324Z,12.27
2023-06-17T01:45:01.385Z,13.45
2023-06-17T01:47:47.411Z,15.45
2023-06-17T01:50:33.736Z,17.98
2023-06-17T01:53:20.117Z,14.40
2023-06-17T01:56:07.123Z,16.55
2023-06-17T01:58:53.153Z,15.20
2023-06-17T02:01:39.587Z,13.63
2023-06-17T02:04:25.858Z,13.35
2023-06-17T02:07:12.189Z,14.13
2023-06-17T02:09:58.593Z,13.13
2023-06-17T02:12:45.718Z,13.55
2023-06-17T02:15:32.952Z,14.70
2023-06-17T02:18:20.074Z,13.23
2023-06-17T02:21:05.736Z,14.38
2023-06-17T02:23:53.108Z,13.93
2023-06-17T02:26:38.890Z,15.57
2023-06-17T02:29:28.255Z,13.48
2023-06-17T02:32:14.504Z,13.70
2023-06-17T02:35:01.011Z,15.20
2023-06-17T02:37:47.105Z,14.98
2023-06-17T02:40:33.255Z,16.45
2023-06-17T02:43:19.556Z,15.18
2023-06-17T02:46:05.420Z,17.15
2023-06-17T02:48:52.427Z,14.73
2023-06-17T02:51:39.618Z,15.93
2023-06-17T02:54:25.636Z,15.52
2023-06-17T02:57:11.748Z,14.80
2023-06-17T02:59:57.603Z,17.55
2023-06-17T03:02:43.821Z,17.33
2023-06-17T03:05:31.342Z,16.15
2023-06-17T03:08:19.290Z,17.13
2023-06-17T03:11:06.456Z,17.77
2023-06-17T03:13:54.343Z,19.08
2023-06-17T03:16:47.948Z,15.20
2023-06-17T03:19:34.566Z,15.48
2023-06-17T03:22:20.789Z,16.30
2023-06-17T03:25:09.175Z,16.10
2023-06-17T03:27:56.299Z,16.65
2023-06-17T03:30:42.423Z,16.55
2023-06-17T03:33:29.490Z,17.10
2023-06-17T03:36:18.674Z,16.88
2023-06-17T03:39:04.713Z,17.33
2023-06-17T03:41:53.916Z,16.23
2023-06-17T03:44:40.473Z,17.25
2023-06-17T03:47:26.431Z,17.33
2023-06-17T03:50:13.018Z,16.23
2023-06-17T03:52:59.619Z,16.98
2023-06-17T03:55:45.912Z,17.23
2023-06-17T03:58:31.896Z,18.38
2023-06-17T04:01:17.620Z,18.20
2023-06-17T04:04:03.746Z,17.90
2023-06-17T04:06:49.673Z,20.70
2023-06-17T04:09:35.872Z,17.23
2023-06-17T04:12:22.149Z,17.20
2023-06-17T04:15:09.619Z,17.58
2023-06-17T04:17:58.073Z,17.30
2023-06-17T04:20:46.195Z,17.95
2023-06-17T04:23:32.241Z,18.73
2023-06-17T04:26:20.198Z,17.58
2023-06-17T04:29:06.666Z,18.65
2023-06-17T04:31:56.150Z,18.85
2023-06-17T04:34:49.049Z,16.77
2023-06-17T04:37:37.935Z,16.20
2023-06-17T04:40:24.775Z,14.98
2023-06-17T04:43:11.370Z,14.43
2023-06-17T04:45:57.913Z,17.38
2023-06-17T04:48:47.740Z,14.90
2023-06-17T04:51:39.470Z,14.20
2023-06-17T04:54:26.700Z,13.63
2023-06-17T04:57:13.056Z,13.68
2023-06-17T04:59:59.151Z,11.43
2023-06-17T05:02:46.408Z,13.40
2023-06-17T05:05:32.860Z,13.43
2023-06-17T05:08:18.953Z,12.07
2023-06-17T05:11:04.933Z,12.32
2023-06-17T05:13:54.052Z,13.32
2023-06-17T05:16:40.637Z,13.90
2023-06-17T05:19:27.016Z,13.50
2023-06-17T05:22:13.319Z,12.55
2023-06-17T05:25:00.266Z,14.52
2023-06-17T05:27:47.121Z,13.75
2023-06-17T05:30:33.997Z,13.32
2023-06-17T05:33:23.779Z,13.48
2023-06-17T05:36:09.992Z,14.10
2023-06-17T05:38:56.937Z,11.80
2023-06-17T05:41:42.946Z,12.20
2023-06-17T05:44:29.079Z,14.07
2023-06-17T05:47:15.813Z,12.38
2023-06-17T05:50:02.211Z,12.43
2023-06-17T05:52:48.539Z,15.23
2023-06-17T05:55:35.211Z,12.65
2023-06-17T05:58:21.436Z,11.52
2023-06-17T06:01:15.332Z,12.20
2023-06-17T06:04:01.472Z,11.45
2023-06-17T06:06:47.795Z,10.75
2023-06-17T06:09:34.447Z,10.48
2023-06-17T06:12:21.269Z,13.02
2023-06-17T06:15:07.567Z,10.30
2023-06-17T06:17:54.591Z,11.90
2023-06-17T06:20:40.623Z,10.15
2023-06-17T06:23:27.067Z,16.55
2023-06-17T06:26:13.324Z,10.82
2023-06-17T06:28:59.218Z,12.13
2023-06-17T06:31:45.391Z,10.52
2023-06-17T06:34:34.259Z,10.50
2023-06-17T06:37:20.549Z,10.80
2023-06-17T06:40:07.612Z,8.80
2023-06-17T06:42:55.684Z,10.63
2023-06-17T06:45:46.304Z,9.45
2023-06-17T06:48:32.293Z,11.80
2023-06-17T06:51:19.002Z,9.13
2023-06-17T06:54:06.083Z,9.93
2023-06-17T06:56:52.240Z,9.35
2023-06-17T06:59:38.679Z,13.38
2023-06-17T07:02:25.288Z,12.32
2023-06-17T07:05:11.750Z,10.38
2023-06-17T07:08:03.511Z,8.98
2023-06-17T07:10:49.375Z,8.60
2023-06-17T07:13:36.007Z,8.23
2023-06-17T07:16:24.836Z,8.15
2023-06-17T07:19:13.043Z,7.53
2023-06-17T07:21:59.203Z,9.25
2023-06-17T07:24:46.836Z,8.70
2023-06-17T07:27:32.338Z,7.55
2023-06-17T07:30:21.040Z,9.18
2023-06-17T07:33:07.130Z,7.82
2023-06-17T07:35:53.742Z,8.85
2023-06-17T07:38:39.572Z,8.40
2023-06-17T07:41:26.297Z,7.18
2023-06-17T07:44:11.839Z,6.30
2023-06-17T07:47:01.151Z,10.00
2023-06-17T07:49:47.291Z,9.57
2023-06-17T07:53:12.125Z,13.77
2023-06-17T07:55:57.806Z,12.80
2023-06-17T07:58:45.169Z,36.35
2023-06-17T08:01:31.349Z,10.55
2023-06-17T08:04:17.439Z,9.32
2023-06-17T08:07:04.910Z,6.82
2023-06-17T08:10:16.598Z,5.40
2023-06-17T08:13:07.701Z,7.85
2023-06-17T08:16:26.421Z,6.07
2023-06-17T08:19:19.744Z,7.18
2023-06-17T08:22:07.608Z,6.55
2023-06-17T08:24:54.560Z,5.90
2023-06-17T08:27:43.743Z,7.88
2023-06-17T08:30:29.171Z,8.90
2023-06-17T08:33:16.187Z,7.47
2023-06-17T08:36:01.913Z,6.25
2023-06-17T08:38:48.180Z,4.75
2023-06-17T08:41:39.059Z,6.60
2023-06-17T08:44:27.420Z,5.20
2023-06-17T08:47:17.159Z,5.25
2023-06-17T08:50:04.192Z,5.50
2023-06-17T08:52:50.787Z,5.18
2023-06-17T08:55:38.864Z,5.82
2023-06-17T08:58:24.559Z,5.90
2023-06-17T09:01:11.874Z,6.57
2023-06-17T09:03:58.174Z,5.90
2023-06-17T09:06:45.609Z,6.72
2023-06-17T09:09:31.895Z,7.15
2023-06-17T09:12:45.102Z,6.93
2023-06-17T09:16:03.388Z,7.70
2023-06-17T09:19:24.995Z,5.38
2023-06-17T09:28:23.651Z,5.10
2023-06-17T09:45:13.729Z,4.15
2023-06-17T09:49:02.394Z,4.72
2023-06-17T10:14:10.386Z,6.35
2023-06-17T10:25:40.651Z,4.88
2023-06-17T10:44:51.024Z,6.68
2023-06-17T11:11:19.355Z,5.05
2023-06-17T11:14:23.133Z,6.15
2023-06-17T11:18:30.900Z,7.18
2023-06-17T11:27:48.010Z,6.47
2023-06-17T18:44:01.249Z,13.68
2023-06-17T18:46:47.484Z,13.82
2023-06-17T18:49:40.864Z,16.10
2023-06-17T18:52:27.093Z,15.30
2023-06-17T18:55:13.737Z,13.00
2023-06-17T18:58:03.628Z,13.95
2023-06-17T19:00:49.951Z,12.85
2023-06-17T19:03:36.840Z,10.95
2023-06-17T19:06:23.165Z,13.43
2023-06-17T19:09:08.694Z,12.63
2023-06-17T19:12:01.153Z,16.75
2023-06-17T19:14:47.049Z,12.80
2023-06-17T19:17:33.031Z,14.40
2023-06-17T19:20:19.486Z,13.10
2023-06-17T19:23:06.224Z,19.75
2023-06-17T19:25:52.216Z,13.60
2023-06-17T19:28:38.235Z,13.65
2023-06-17T19:31:25.815Z,14.32
2023-06-17T19:34:12.126Z,16.45
2023-06-17T19:36:58.174Z,16.73
2023-06-17T19:39:44.494Z,17.27
2023-06-17T19:42:30.435Z,17.63
2023-06-17T19:45:16.961Z,13.75
2023-06-17T19:48:02.867Z,13.45
2023-06-17T19:50:49.135Z,15.80
2023-06-17T19:53:35.189Z,15.27
2023-06-17T19:56:21.792Z,16.42
2023-06-17T19:59:07.836Z,13.23
2023-06-17T20:01:54.312Z,15.32
2023-06-17T20:04:40.321Z,14.02
2023-06-17T20:07:26.738Z,18.25
2023-06-17T20:10:12.402Z,14.75
2023-06-17T20:12:59.388Z,14.15
2023-06-17T20:15:45.717Z,15.00
2023-06-17T20:18:32.156Z,14.63
2023-06-17T20:21:18.357Z,17.08
2023-06-17T20:24:05.137Z,14.43
2023-06-17T20:26:51.129Z,15.68
2023-06-17T20:29:37.021Z,14.48
2023-06-17T20:32:22.834Z,15.95
2023-06-17T20:35:11.039Z,18.55
2023-06-17T20:37:57.810Z,16.92
2023-06-17T20:40:43.849Z,18.42
2023-06-17T20:43:30.073Z,15.57
2023-06-17T20:46:16.923Z,17.00
2023-06-17T20:49:03.004Z,18.85
2023-06-17T20:51:49.297Z,18.40
2023-06-17T20:54:35.419Z,20.17
2023-06-17T20:57:21.313Z,20.52
2023-06-17T21:00:07.549Z,19.52
2023-06-17T21:02:54.130Z,18.13
2023-06-17T21:05:40.552Z,19.27
2023-06-17T21:08:26.805Z,19.98
2023-06-17T21:11:12.929Z,17.70
2023-06-17T21:14:01.712Z,19.50
2023-06-17T21:16:47.302Z,20.08
2023-06-17T21:19:33.610Z,25.92
2023-06-17T21:22:19.150Z,20.33
2023-06-17T21:25:06.103Z,25.25
2023-06-17T21:27:51.874Z,22.65
2023-06-17T21:30:38.035Z,21.67
2023-06-17T21:33:25.357Z,19.88
2023-06-17T21:36:11.623Z,22.50
2023-06-17T21:38:57.518Z,22.60
2023-06-17T21:41:43.827Z,20.55
2023-06-17T21:44:30.796Z,20.45
2023-06-17T21:47:18.436Z,24.27
2023-06-17T21:50:04.732Z,22.40
2023-06-17T21:52:50.887Z,20.83
2023-06-17T21:55:36.614Z,25.58
2023-06-17T21:58:22.606Z,21.45
2023-06-17T22:01:08.318Z,24.98
2023-06-17T22:03:54.560Z,27.40
2023-06-17T22:06:40.787Z,22.10
2023-06-17T22:09:26.960Z,23.17
2023-06-17T22:12:12.450Z,25.15
2023-06-17T22:15:01.889Z,23.08
2023-06-17T22:17:51.342Z,24.27
2023-06-17T22:20:37.598Z,22.02
2023-06-17T22:23:23.395Z,21.23
2023-06-17T22:26:09.426Z,22.50
2023-06-17T22:28:54.864Z,23.55
2023-06-17T22:31:41.078Z,20.00
2023-06-17T22:34:26.954Z,21.70
2023-06-17T22:37:13.106Z,19.30
2023-06-17T22:39:59.106Z,22.27
2023-06-17T22:42:45.426Z,20.70
2023-06-17T22:45:30.783Z,19.23
2023-06-17T22:48:17.240Z,20.65
2023-06-17T22:51:03.264Z,24.27
2023-06-17T22:53:49.721Z,19.77
2023-06-17T22:56:35.619Z,21.45
2023-06-17T22:59:23.006Z,19.00
2023-06-17T23:02:08.768Z,18.65
2023-06-17T23:04:54.613Z,22.25
2023-06-17T23:07:40.264Z,21.90
2023-06-17T23:10:26.897Z,20.30
2023-06-17T23:13:12.409Z,21.02
2023-06-17T23:15:59.113Z,22.73
2023-06-17T23:18:44.654Z,25.67
2023-06-17T23:21:31.188Z,27.88
2023-06-17T23:24:17.807Z,21.88
2023-06-17T23:27:05.311Z,21.25
2023-06-17T23:29:55.245Z,22.85
2023-06-17T23:32:41.421Z,20.98
2023-06-17T23:35:27.411Z,23.35
2023-06-17T23:38:13.679Z,23.30
2023-06-17T23:40:59.911Z,20.73
2023-06-17T23:43:46.217Z,24.23
2023-06-17T23:46:33.303Z,22.13
2023-06-17T23:49:19.719Z,20.65
2023-06-17T23:52:07.256Z,20.42
2023-06-17T23:54:53.925Z,20.25
2023-06-17T23:57:39.471Z,20.38
